Time;durP1;ratioP1;P1;durP2;ratioP2;P2;SDS_P1;SDS_P2;PMS_P1;PMS_P2;Temp;Humidity;BMP_temperature;BMP_pressure;BME280_temperature;BME280_humidity;BME280_pressure;Samples;Min_cycle;Max_cycle;Signal;HPM_P1;HPM_P2
2021/07/18 00:01:19;;;;;;;4.60;2.63;;;16.30;99.90;;;;;;5115055;28;20267;-72
2021/07/18 00:03:46;;;;;;;4.93;2.53;;;16.30;99.90;;;;;;5113298;28;20205;-72
2021/07/18 00:06:15;;;;;;;3.77;2.70;;;16.40;99.90;;;;;;5107629;28;20279;-72
2021/07/18 00:08:42;;;;;;;5.63;2.70;;;16.50;99.90;;;;;;5102890;28;20209;-72
2021/07/18 00:11:09;;;;;;;3.97;2.40;;;16.40;99.90;;;;;;5113914;28;20201;-72
2021/07/18 00:13:37;;;;;;;4.37;2.93;;;16.30;99.90;;;;;;5115391;28;20224;-72
2021/07/18 00:16:04;;;;;;;4.63;2.80;;;16.30;99.90;;;;;;5114568;28;20285;-72
2021/07/18 00:18:31;;;;;;;3.57;2.57;;;16.30;99.90;;;;;;5107875;28;20263;-72
2021/07/18 00:20:58;;;;;;;6.53;3.10;;;16.20;99.90;;;;;;5112507;28;20691;-72
2021/07/18 00:23:26;;;;;;;4.10;3.10;;;16.10;99.90;;;;;;5101526;27;20249;-72
2021/07/18 00:25:53;;;;;;;5.27;2.60;;;16.10;99.90;;;;;;5108003;28;20197;-72
2021/07/18 00:28:20;;;;;;;4.73;2.80;;;16.20;99.90;;;;;;5109899;28;20220;-72
2021/07/18 00:30:47;;;;;;;5.97;2.60;;;16.10;99.90;;;;;;5108981;28;20212;-72
2021/07/18 00:33:14;;;;;;;6.60;2.90;;;16.00;99.90;;;;;;5109553;28;20553;-72
2021/07/18 00:35:41;;;;;;;4.00;2.90;;;15.90;99.90;;;;;;5112994;28;20209;-72
2021/07/18 00:38:08;;;;;;;9.23;3.07;;;16.10;99.90;;;;;;5112582;28;20243;-72
2021/07/18 00:40:37;;;;;;;4.47;2.80;;;16.00;99.90;;;;;;5108361;28;20197;-72
2021/07/18 00:43:04;;;;;;;4.97;3.05;;;16.10;99.90;;;;;;5113176;28;20225;-72
2021/07/18 00:45:31;;;;;;;4.60;3.23;;;16.10;99.90;;;;;;5108047;28;20296;-72
2021/07/18 00:47:58;;;;;;;5.47;2.97;;;16.10;99.90;;;;;;5114650;28;20317;-72
2021/07/18 00:50:25;;;;;;;4.88;3.40;;;16.20;99.90;;;;;;5112784;28;20329;-72
2021/07/18 00:52:53;;;;;;;6.87;3.40;;;16.00;99.90;;;;;;5114564;28;20700;-72
2021/07/18 00:55:20;;;;;;;4.27;3.07;;;16.10;99.90;;;;;;5113711;28;20287;-72
2021/07/18 00:57:50;;;;;;;9.97;3.00;;;16.00;99.90;;;;;;5102252;28;20201;-72
2021/07/18 01:00:18;;;;;;;6.70;2.80;;;16.00;99.90;;;;;;5113679;28;20197;-72
2021/07/18 01:02:46;;;;;;;5.60;3.07;;;16.00;99.90;;;;;;5113394;28;20193;-72
2021/07/18 01:05:15;;;;;;;3.67;2.80;;;15.90;99.90;;;;;;5112795;28;20201;-72
2021/07/18 01:07:42;;;;;;;7.23;3.13;;;15.90;99.90;;;;;;5106113;28;20204;-72
2021/07/18 01:10:11;;;;;;;6.07;3.40;;;16.00;99.90;;;;;;5114222;28;20223;-72
2021/07/18 01:12:38;;;;;;;5.00;3.30;;;15.90;99.90;;;;;;5113157;28;20220;-72
2021/07/18 01:15:08;;;;;;;5.27;2.93;;;15.80;99.90;;;;;;5114349;28;20201;-71
2021/07/18 01:17:36;;;;;;;5.20;2.90;;;15.90;99.90;;;;;;5113468;28;20246;-72
2021/07/18 01:20:04;;;;;;;7.40;3.57;;;15.80;99.90;;;;;;5112317;28;20744;-72
2021/07/18 01:22:33;;;;;;;5.73;3.57;;;15.90;99.90;;;;;;5111464;28;20244;-72
2021/07/18 01:25:00;;;;;;;9.20;3.43;;;15.90;99.90;;;;;;5113297;28;20204;-71
2021/07/18 01:27:28;;;;;;;6.23;3.40;;;15.90;99.90;;;;;;5112043;28;20329;-72
2021/07/18 01:29:55;;;;;;;3.83;3.20;;;16.00;99.90;;;;;;5112301;28;20197;-71
2021/07/18 01:32:22;;;;;;;5.13;4.20;;;16.10;99.90;;;;;;5109323;28;20239;-72
2021/07/18 01:34:49;;;;;;;8.77;4.40;;;16.20;99.90;;;;;;5113086;28;20227;-72
2021/07/18 01:37:17;;;;;;;5.13;3.77;;;16.20;99.90;;;;;;5107923;28;20562;-71
2021/07/18 01:39:46;;;;;;;8.05;3.90;;;16.10;99.90;;;;;;5110714;28;20297;-72
2021/07/18 01:42:13;;;;;;;6.70;3.40;;;16.20;99.90;;;;;;5106386;28;20288;-72
2021/07/18 01:44:40;;;;;;;6.35;3.80;;;16.10;99.90;;;;;;5113184;28;20642;-72
2021/07/18 01:47:08;;;;;;;8.82;3.90;;;16.20;99.90;;;;;;5111329;28;20247;-71
2021/07/18 01:49:35;;;;;;;7.97;4.77;;;16.20;99.90;;;;;;5108276;28;20564;-72
2021/07/18 01:52:03;;;;;;;9.37;4.90;;;16.30;99.90;;;;;;5112820;28;20258;-71
2021/07/18 01:54:30;;;;;;;8.37;4.17;;;16.40;99.90;;;;;;5113173;28;20205;-71
2021/07/18 01:56:58;;;;;;;8.48;4.65;;;16.40;99.90;;;;;;5111195;28;20201;-72
2021/07/18 01:59:25;;;;;;;10.30;5.67;;;16.50;99.90;;;;;;5112507;28;20197;-71
2021/07/18 02:01:52;;;;;;;10.63;5.07;;;16.50;99.90;;;;;;5101778;28;20241;-72
2021/07/18 02:04:19;;;;;;;9.93;5.90;;;16.50;99.90;;;;;;5113429;27;20205;-72
2021/07/18 02:06:46;;;;;;;11.40;5.93;;;16.50;99.90;;;;;;5112191;28;20242;-72
2021/07/18 02:09:13;;;;;;;14.20;6.50;;;16.60;99.90;;;;;;5111912;28;20278;-72
2021/07/18 02:11:41;;;;;;;14.23;7.50;;;16.60;99.90;;;;;;5112159;28;20610;-71
2021/07/18 02:14:09;;;;;;;10.95;6.45;;;16.60;99.90;;;;;;5112161;28;20256;-72
2021/07/18 02:16:36;;;;;;;9.70;6.40;;;16.70;99.90;;;;;;5113090;28;20536;-72
2021/07/18 02:19:08;;;;;;;12.73;6.60;;;16.70;99.90;;;;;;5111574;27;20201;-72
2021/07/18 02:21:36;;;;;;;13.57;7.13;;;16.80;99.90;;;;;;5110645;28;20681;-72
2021/07/18 02:24:04;;;;;;;13.83;6.53;;;16.80;99.90;;;;;;5105038;28;20193;-72
2021/07/18 02:26:31;;;;;;;11.77;6.30;;;16.80;99.90;;;;;;5110529;28;20249;-72
2021/07/18 02:28:59;;;;;;;14.33;7.20;;;16.80;99.90;;;;;;5110229;28;20607;-72
2021/07/18 02:31:27;;;;;;;14.50;7.55;;;16.80;99.90;;;;;;5109989;28;20229;-72
2021/07/18 02:33:54;;;;;;;10.70;6.68;;;16.80;99.90;;;;;;5110918;28;20260;-72
2021/07/18 02:36:21;;;;;;;13.07;7.57;;;16.90;99.90;;;;;;5109322;28;20240;-72
2021/07/18 02:38:48;;;;;;;14.18;7.93;;;16.90;99.90;;;;;;5104551;28;20209;-72
2021/07/18 02:41:15;;;;;;;17.03;7.63;;;16.90;99.90;;;;;;5106522;28;20193;-71
2021/07/18 02:43:42;;;;;;;12.90;7.20;;;16.90;99.90;;;;;;5107846;27;20213;-72
2021/07/18 02:46:09;;;;;;;12.48;7.57;;;16.90;99.90;;;;;;5112393;27;20209;-72
2021/07/18 02:48:39;;;;;;;13.20;7.60;;;16.90;99.90;;;;;;5108473;27;20205;-72
2021/07/18 02:51:06;;;;;;;10.45;7.35;;;17.00;99.90;;;;;;5106781;28;20708;-72
2021/07/18 02:53:33;;;;;;;12.52;7.65;;;17.00;99.90;;;;;;5105946;28;20225;-72
2021/07/18 02:56:00;;;;;;;13.55;7.25;;;17.00;99.90;;;;;;5109011;28;20273;-72
2021/07/18 02:58:27;;;;;;;13.50;7.10;;;17.00;99.90;;;;;;5107453;28;20197;-72
2021/07/18 03:00:54;;;;;;;11.95;6.85;;;17.00;99.90;;;;;;5109731;28;20204;-71
2021/07/18 03:03:21;;;;;;;10.30;6.55;;;17.10;99.90;;;;;;5109674;28;20262;-72
2021/07/18 03:05:50;;;;;;;10.30;6.88;;;17.10;99.90;;;;;;5110937;28;20270;-72
2021/07/18 03:08:17;;;;;;;10.48;6.90;;;17.00;99.90;;;;;;5105381;28;20197;-73
2021/07/18 03:10:44;;;;;;;11.18;6.90;;;17.10;99.90;;;;;;5106831;28;20647;-73
2021/07/18 03:13:11;;;;;;;10.55;6.72;;;17.10;99.90;;;;;;5110680;28;20256;-72
2021/07/18 03:15:38;;;;;;;12.18;7.65;;;17.10;99.90;;;;;;5110455;28;20212;-72
2021/07/18 03:18:06;;;;;;;10.30;7.07;;;17.10;99.90;;;;;;5108227;28;20241;-72
2021/07/18 03:20:34;;;;;;;11.20;7.45;;;17.10;99.90;;;;;;5109209;28;20578;-72
2021/07/18 03:23:03;;;;;;;13.27;7.53;;;17.10;99.90;;;;;;5108806;28;20673;-71
2021/07/18 03:25:30;;;;;;;12.43;7.63;;;17.10;99.90;;;;;;5110702;28;20285;-72
2021/07/18 03:27:57;;;;;;;12.02;7.53;;;17.00;99.90;;;;;;5111084;28;20222;-72
2021/07/18 03:30:25;;;;;;;13.37;7.67;;;17.00;99.90;;;;;;5110524;28;20313;-73
2021/07/18 03:32:52;;;;;;;12.32;7.95;;;17.00;99.90;;;;;;5101886;28;20201;-73
2021/07/18 03:35:19;;;;;;;13.30;7.50;;;17.00;99.90;;;;;;5103258;28;20612;-72
2021/07/18 03:37:46;;;;;;;11.90;7.47;;;17.00;99.90;;;;;;5107995;28;20201;-72
2021/07/18 03:40:17;;;;;;;14.23;7.70;;;16.80;99.90;;;;;;5105110;28;20253;-70
2021/07/18 03:42:44;;;;;;;13.97;7.97;;;16.90;99.90;;;;;;5110451;28;20254;-70
2021/07/18 03:45:13;;;;;;;16.40;8.43;;;17.00;99.90;;;;;;5110960;28;20270;-70
2021/07/18 03:47:40;;;;;;;16.55;8.80;;;16.90;99.90;;;;;;5110563;28;20560;-70
2021/07/18 03:50:09;;;;;;;14.03;8.13;;;17.00;99.90;;;;;;5109854;28;20246;-70
2021/07/18 03:52:37;;;;;;;14.90;7.37;;;16.90;99.90;;;;;;5110006;28;20197;-70
2021/07/18 03:55:04;;;;;;;14.55;8.25;;;17.00;99.90;;;;;;5111061;28;20224;-70
2021/07/18 03:57:33;;;;;;;13.85;8.32;;;17.00;99.90;;;;;;5103450;28;20270;-70
2021/07/18 04:00:00;;;;;;;14.43;8.05;;;17.00;99.90;;;;;;5109332;28;20201;-70
2021/07/18 04:02:27;;;;;;;14.27;7.97;;;17.00;99.90;;;;;;5105633;28;20257;-70
2021/07/18 04:04:54;;;;;;;15.27;9.00;;;17.00;99.90;;;;;;5108402;28;20201;-70
2021/07/18 04:07:21;;;;;;;13.82;7.90;;;17.10;99.90;;;;;;5110184;28;20565;-70
2021/07/18 04:09:48;;;;;;;13.10;7.78;;;17.00;99.90;;;;;;5111251;28;20218;-70
2021/07/18 04:12:15;;;;;;;13.60;7.63;;;17.00;99.90;;;;;;5108179;28;20238;-70
2021/07/18 04:14:43;;;;;;;15.35;7.40;;;17.10;99.90;;;;;;5108051;28;20257;-71
2021/07/18 04:17:10;;;;;;;13.27;7.65;;;17.10;99.90;;;;;;5110500;28;20201;-71
2021/07/18 04:19:37;;;;;;;13.40;8.15;;;17.10;99.90;;;;;;5108992;28;20197;-71
2021/07/18 04:22:05;;;;;;;13.93;8.13;;;17.10;99.90;;;;;;5109567;28;20258;-71
2021/07/18 04:24:32;;;;;;;14.98;8.10;;;17.20;99.90;;;;;;5109470;28;20205;-71
2021/07/18 04:26:59;;;;;;;14.07;8.45;;;17.30;99.90;;;;;;5110201;28;20232;-71
2021/07/18 04:29:26;;;;;;;17.13;8.20;;;17.30;99.90;;;;;;5108740;28;20219;-71
2021/07/18 04:31:54;;;;;;;14.65;7.78;;;17.30;99.90;;;;;;5107278;28;20228;-71
2021/07/18 04:34:21;;;;;;;15.65;8.00;;;17.40;99.90;;;;;;5104675;28;20270;-71
2021/07/18 04:36:48;;;;;;;12.35;7.53;;;17.30;99.90;;;;;;5107055;28;20201;-71
2021/07/18 04:39:15;;;;;;;14.70;7.20;;;17.30;99.90;;;;;;5110265;28;20229;-71
2021/07/18 04:41:42;;;;;;;14.15;8.20;;;17.30;99.90;;;;;;5112918;28;20254;-71
2021/07/18 04:44:10;;;;;;;11.60;8.02;;;17.40;99.90;;;;;;5109641;28;20687;-71
2021/07/18 04:46:37;;;;;;;16.63;8.55;;;17.50;99.90;;;;;;5111230;28;20197;-71
2021/07/18 04:49:05;;;;;;;12.35;7.53;;;17.50;99.90;;;;;;5114804;28;20556;-72
2021/07/18 04:51:32;;;;;;;12.68;7.32;;;17.60;99.90;;;;;;5114608;28;20239;-74
2021/07/18 04:53:59;;;;;;;12.63;7.53;;;17.60;99.90;;;;;;5114785;28;20670;-72
2021/07/18 04:56:26;;;;;;;13.07;8.25;;;17.50;99.90;;;;;;5114087;28;20662;-73
2021/07/18 04:58:53;;;;;;;13.35;7.60;;;17.60;99.90;;;;;;5114680;28;20246;-73
2021/07/18 05:01:20;;;;;;;15.00;8.15;;;17.70;99.90;;;;;;5113598;28;20557;-73
2021/07/18 05:03:47;;;;;;;12.15;7.63;;;17.70;99.90;;;;;;5113026;28;20670;-73
2021/07/18 05:06:15;;;;;;;12.85;7.55;;;17.70;99.90;;;;;;5113922;28;20201;-72
2021/07/18 05:08:42;;;;;;;12.25;7.88;;;17.70;99.90;;;;;;5113336;28;20197;-73
2021/07/18 05:11:10;;;;;;;15.20;7.88;;;17.80;99.90;;;;;;5113648;28;20201;-73
2021/07/18 05:13:37;;;;;;;12.13;8.18;;;17.70;99.90;;;;;;5112614;27;20624;-73
2021/07/18 05:16:05;;;;;;;15.13;8.57;;;17.70;99.90;;;;;;5113765;28;20676;-73
2021/07/18 05:18:32;;;;;;;17.20;9.90;;;17.70;99.90;;;;;;5110160;28;20201;-73
2021/07/18 05:20:59;;;;;;;12.85;8.10;;;17.70;99.90;;;;;;5112964;28;20192;-73
2021/07/18 05:23:27;;;;;;;14.55;8.00;;;17.90;99.90;;;;;;5109167;28;20250;-73
2021/07/18 05:25:54;;;;;;;11.60;7.25;;;17.90;99.90;;;;;;5109056;28;20290;-73
2021/07/18 05:28:21;;;;;;;14.40;8.23;;;17.90;99.90;;;;;;5111750;28;20197;-71
2021/07/18 05:30:49;;;;;;;14.40;8.77;;;18.00;99.90;;;;;;5113686;28;20251;-71
2021/07/18 05:33:16;;;;;;;14.15;8.35;;;18.10;99.90;;;;;;5113850;28;20621;-71
2021/07/18 05:35:43;;;;;;;15.85;8.25;;;18.10;99.90;;;;;;5113172;28;20678;-71
2021/07/18 05:38:10;;;;;;;13.93;8.30;;;18.10;99.90;;;;;;5114170;28;20205;-71
2021/07/18 05:40:38;;;;;;;13.18;8.05;;;18.10;99.90;;;;;;5114412;28;20254;-71
2021/07/18 05:43:05;;;;;;;12.27;8.13;;;18.20;99.90;;;;;;5114270;28;20566;-71
2021/07/18 05:45:33;;;;;;;13.50;8.48;;;18.00;99.90;;;;;;5114310;28;20241;-71
2021/07/18 05:48:00;;;;;;;17.25;8.68;;;18.10;99.90;;;;;;5113949;28;20200;-71
2021/07/18 05:50:27;;;;;;;12.15;7.70;;;18.10;99.90;;;;;;5114281;28;20254;-71
2021/07/18 05:52:55;;;;;;;17.00;8.52;;;18.10;99.90;;;;;;5114255;28;20197;-71
2021/07/18 05:55:23;;;;;;;15.10;8.80;;;18.20;99.90;;;;;;5113975;28;20229;-71
2021/07/18 05:57:53;;;;;;;13.15;8.70;;;18.10;99.90;;;;;;5113871;28;20254;-71
2021/07/18 06:00:21;;;;;;;15.05;9.30;;;18.20;99.90;;;;;;5113793;28;20196;-71
2021/07/18 06:02:48;;;;;;;12.75;8.70;;;18.20;99.90;;;;;;5113368;28;20240;-71
2021/07/18 06:05:15;;;;;;;11.63;8.05;;;18.20;99.90;;;;;;5113313;28;20292;-71
2021/07/18 06:07:42;;;;;;;14.05;9.27;;;18.30;99.90;;;;;;5113399;28;20262;-71
2021/07/18 06:10:11;;;;;;;15.18;8.88;;;18.20;99.90;;;;;;5113167;28;20285;-71
2021/07/18 06:12:38;;;;;;;16.52;8.80;;;18.30;99.90;;;;;;5113545;28;20236;-71
2021/07/18 06:15:09;;;;;;;14.00;8.82;;;18.30;99.90;;;;;;5114246;27;20220;-71
2021/07/18 06:17:37;;;;;;;15.93;8.95;;;18.60;99.90;;;;;;5109652;28;20204;-71
2021/07/18 06:20:08;;;;;;;13.90;8.52;;;18.60;99.90;;;;;;5108165;28;20205;-71
2021/07/18 06:22:36;;;;;;;16.95;8.57;;;18.80;99.90;;;;;;5108627;28;20573;-71
2021/07/18 06:25:04;;;;;;;11.73;7.47;;;18.80;99.90;;;;;;5108978;28;20261;-71
2021/07/18 06:27:31;;;;;;;14.05;7.90;;;19.00;99.90;;;;;;5109553;28;20209;-71
2021/07/18 06:29:58;;;;;;;10.23;7.88;;;19.00;99.90;;;;;;5108593;28;20240;-71
2021/07/18 06:32:27;;;;;;;13.63;8.65;;;18.90;99.90;;;;;;5109639;28;20254;-71
2021/07/18 06:34:54;;;;;;;13.75;8.77;;;19.00;99.90;;;;;;5108933;28;20232;-71
2021/07/18 06:37:21;;;;;;;14.85;8.77;;;19.10;99.90;;;;;;5108479;28;20197;-71
2021/07/18 06:39:48;;;;;;;11.35;7.95;;;19.10;99.90;;;;;;5109018;28;20201;-71
2021/07/18 06:42:16;;;;;;;14.75;9.45;;;19.10;99.90;;;;;;5108916;28;20217;-71
2021/07/18 06:44:43;;;;;;;11.45;8.18;;;19.10;99.90;;;;;;5096738;28;20232;-71
2021/07/18 06:47:10;;;;;;;15.00;8.80;;;19.20;99.90;;;;;;5108721;28;20197;-71
2021/07/18 06:49:38;;;;;;;12.02;8.10;;;19.20;99.90;;;;;;5107533;28;20197;-71
2021/07/18 06:52:06;;;;;;;18.58;9.90;;;19.60;99.90;;;;;;5107125;28;20254;-72
2021/07/18 06:54:33;;;;;;;15.93;9.52;;;19.50;99.90;;;;;;5108534;28;20233;-71
2021/07/18 06:57:00;;;;;;;15.63;8.93;;;19.50;99.90;;;;;;5109198;28;20193;-71
2021/07/18 06:59:27;;;;;;;16.23;9.02;;;19.30;99.90;;;;;;5108590;28;20254;-71
2021/07/18 07:01:55;;;;;;;13.18;8.82;;;19.30;99.90;;;;;;5107104;28;20201;-71
2021/07/18 07:04:22;;;;;;;17.38;9.15;;;19.40;99.90;;;;;;5108740;28;20228;-71
2021/07/18 07:06:51;;;;;;;14.32;8.43;;;19.20;99.90;;;;;;5108445;28;20209;-71
2021/07/18 07:09:18;;;;;;;16.27;9.18;;;19.60;99.90;;;;;;5108568;28;20246;-71
2021/07/18 07:11:45;;;;;;;13.90;8.50;;;19.40;99.90;;;;;;5109470;28;20205;-71
2021/07/18 07:14:12;;;;;;;11.73;7.68;;;19.60;99.90;;;;;;5107271;28;20205;-71
2021/07/18 07:16:39;;;;;;;14.63;8.20;;;19.50;99.90;;;;;;5108038;28;20209;-71
2021/07/18 07:19:06;;;;;;;13.20;8.38;;;19.20;99.90;;;;;;5108940;28;20197;-71
2021/07/18 07:21:33;;;;;;;13.18;8.55;;;19.30;99.90;;;;;;5107796;28;20612;-72
2021/07/18 07:24:01;;;;;;;13.25;7.78;;;19.40;99.90;;;;;;5108317;28;20273;-71
2021/07/18 07:26:29;;;;;;;12.30;7.80;;;19.50;99.90;;;;;;5108456;28;20258;-71
2021/07/18 07:28:56;;;;;;;11.15;6.65;;;19.60;99.90;;;;;;5108481;28;20213;-72
2021/07/18 07:31:23;;;;;;;12.45;6.55;;;19.80;99.90;;;;;;5107744;28;20259;-71
2021/07/18 07:33:50;;;;;;;11.82;6.15;;;19.80;99.90;;;;;;5109167;28;20209;-71
2021/07/18 07:36:17;;;;;;;10.32;6.78;;;19.90;99.90;;;;;;5107448;28;20739;-71
2021/07/18 07:38:45;;;;;;;10.45;7.20;;;19.90;99.90;;;;;;5108244;28;20238;-72
2021/07/18 07:41:14;;;;;;;11.70;6.80;;;19.80;99.90;;;;;;5108304;28;20205;-72
2021/07/18 07:43:41;;;;;;;10.30;6.28;;;20.00;99.90;;;;;;5094384;28;20297;-71
2021/07/18 07:46:08;;;;;;;10.10;6.25;;;20.00;99.90;;;;;;5107831;28;20205;-71
2021/07/18 07:48:35;;;;;;;10.30;6.18;;;19.80;99.90;;;;;;5107900;28;20204;-71
2021/07/18 07:51:04;;;;;;;12.50;7.40;;;20.00;99.90;;;;;;5108006;28;20205;-71
2021/07/18 07:53:32;;;;;;;12.98;7.72;;;20.00;99.90;;;;;;5107589;28;20207;-71
2021/07/18 07:55:59;;;;;;;12.57;7.13;;;20.10;99.90;;;;;;5101873;28;20678;-72
2021/07/18 07:58:28;;;;;;;12.43;6.75;;;20.20;99.90;;;;;;5108585;28;20250;-71
2021/07/18 08:00:55;;;;;;;12.27;7.13;;;20.20;99.90;;;;;;5107937;28;20209;-71
2021/07/18 08:03:22;;;;;;;10.48;6.75;;;20.10;99.90;;;;;;5107914;28;20208;-71
2021/07/18 08:05:50;;;;;;;9.98;7.15;;;20.10;99.90;;;;;;5108292;28;20237;-71
2021/07/18 08:08:18;;;;;;;12.00;7.28;;;20.20;99.90;;;;;;5108450;28;20212;-71
2021/07/18 08:10:45;;;;;;;10.88;6.60;;;20.00;99.90;;;;;;5107205;28;20205;-72
2021/07/18 08:13:12;;;;;;;12.23;6.53;;;20.20;99.90;;;;;;5110908;28;20205;-71
2021/07/18 08:15:42;;;;;;;12.85;6.55;;;20.30;99.90;;;;;;5111344;28;20635;-71
2021/07/18 08:18:09;;;;;;;10.77;6.55;;;20.20;99.90;;;;;;5111676;28;20204;-71
2021/07/18 08:20:37;;;;;;;8.73;5.75;;;20.50;99.90;;;;;;5111833;28;20205;-71
2021/07/18 08:23:05;;;;;;;10.88;6.57;;;20.80;99.90;;;;;;5112059;28;20349;-71
2021/07/18 08:25:32;;;;;;;10.02;6.32;;;20.80;99.90;;;;;;5111223;28;20213;-71
2021/07/18 08:27:59;;;;;;;9.85;6.30;;;20.70;99.90;;;;;;5111685;28;20243;-71
2021/07/18 08:30:27;;;;;;;10.40;6.28;;;20.50;99.90;;;;;;5112158;28;20209;-71
2021/07/18 08:32:55;;;;;;;10.20;5.80;;;20.60;99.90;;;;;;5110917;28;20201;-71
2021/07/18 08:35:22;;;;;;;9.05;5.55;;;20.70;99.90;;;;;;5111404;28;20217;-72
2021/07/18 08:37:49;;;;;;;7.65;5.57;;;20.90;99.90;;;;;;5111909;28;20209;-71
2021/07/18 08:40:17;;;;;;;9.60;5.03;;;20.70;99.90;;;;;;5111172;28;20643;-72
2021/07/18 08:42:44;;;;;;;8.48;5.25;;;20.90;99.90;;;;;;5111148;28;20201;-71
2021/07/18 08:45:12;;;;;;;9.93;5.70;;;20.60;99.90;;;;;;5111364;28;20249;-71
2021/07/18 08:47:39;;;;;;;9.25;5.50;;;20.90;99.90;;;;;;5110592;28;20602;-71
2021/07/18 08:50:10;;;;;;;8.48;5.63;;;20.80;99.90;;;;;;5110875;28;20208;-72
2021/07/18 08:52:38;;;;;;;8.20;5.20;;;20.90;99.90;;;;;;5111608;28;20274;-71
2021/07/18 08:55:07;;;;;;;7.88;4.80;;;21.20;99.90;;;;;;5111101;28;20286;-71
2021/07/18 08:57:34;;;;;;;7.63;4.80;;;21.40;99.90;;;;;;5110538;28;20205;-71
2021/07/18 09:00:01;;;;;;;8.25;5.18;;;21.60;99.90;;;;;;5111755;27;20220;-71
2021/07/18 09:02:28;;;;;;;8.38;4.90;;;21.60;99.90;;;;;;5111396;28;20288;-71
2021/07/18 09:04:56;;;;;;;7.20;4.95;;;22.10;99.90;;;;;;5110816;28;20209;-71
2021/07/18 09:07:25;;;;;;;7.38;5.60;;;21.80;99.90;;;;;;5110934;27;20602;-71
2021/07/18 09:10:02;;;;;;;7.05;5.18;;;21.90;99.90;;;;;;5112308;27;20253;-71
2021/07/18 09:12:29;;;;;;;7.40;5.03;;;22.50;99.90;;;;;;5116589;27;20200;-72
2021/07/18 09:15:00;;;;;;;8.00;4.70;;;22.90;99.90;;;;;;5116548;27;20239;-72
2021/07/18 09:17:33;;;;;;;7.38;5.25;;;22.80;99.90;;;;;;5117769;27;20201;-71
2021/07/18 09:20:11;;;;;;;7.38;4.82;;;22.70;99.90;;;;;;5115260;27;20685;-72
2021/07/18 09:22:40;;;;;;;7.32;5.15;;;23.30;99.90;;;;;;5113261;27;20633;-72
2021/07/18 09:25:07;;;;;;;8.38;5.43;;;22.90;99.90;;;;;;5111444;27;20263;-71
2021/07/18 09:27:35;;;;;;;7.50;4.75;;;23.20;99.90;;;;;;5112164;27;20254;-72
2021/07/18 09:30:07;;;;;;;6.85;5.22;;;23.40;99.90;;;;;;5107656;27;20206;-72
2021/07/18 09:32:35;;;;;;;5.15;4.50;;;23.20;99.90;;;;;;5113588;27;20228;-71
2021/07/18 09:35:05;;;;;;;8.98;5.43;;;23.40;99.90;;;;;;5118047;27;20227;-72
2021/07/18 09:37:34;;;;;;;6.97;4.38;;;23.50;99.90;;;;;;5106410;28;20266;-72
2021/07/18 09:40:04;;;;;;;8.70;4.93;;;24.10;99.90;;;;;;5110236;27;20201;-71
2021/07/18 09:42:43;;;;;;;6.95;5.55;;;24.50;99.90;;;;;;5100966;28;20261;-72
2021/07/18 09:45:19;;;;;;;7.80;5.20;;;24.40;99.90;;;;;;5110362;28;20215;-72
2021/07/18 09:48:01;;;;;;;8.77;5.20;;;24.20;99.90;;;;;;5111460;27;20291;-72
2021/07/18 09:50:31;;;;;;;7.88;5.20;;;24.80;99.90;;;;;;5106786;27;20265;-72
2021/07/18 09:53:15;;;;;;;8.43;4.82;;;25.10;99.90;;;;;;5116103;27;20239;-72
2021/07/18 09:55:58;;;;;;;7.25;4.90;;;24.80;99.90;;;;;;5102667;28;20260;-72
2021/07/18 09:58:27;;;;;;;7.22;4.88;;;24.70;99.90;;;;;;5107206;28;20562;-72
2021/07/18 10:00:55;;;;;;;6.72;4.95;;;24.70;99.90;;;;;;5117181;27;20200;-72
2021/07/18 10:03:23;;;;;;;9.13;5.15;;;24.30;99.90;;;;;;5126924;27;20216;-72
2021/07/18 10:06:05;;;;;;;5.80;4.40;;;24.30;99.90;;;;;;5118865;27;21140;-72
2021/07/18 10:08:33;;;;;;;7.38;4.90;;;24.80;99.90;;;;;;5104730;28;20240;-72
2021/07/18 10:11:01;;;;;;;6.55;4.60;;;25.00;99.90;;;;;;5110731;27;20236;-72
2021/07/18 10:13:30;;;;;;;7.00;4.88;;;25.60;99.90;;;;;;5122402;27;20216;-72
2021/07/18 10:15:57;;;;;;;4.80;4.28;;;25.60;99.90;;;;;;5120653;27;20822;-72
2021/07/18 10:18:24;;;;;;;5.65;3.90;;;25.20;99.90;;;;;;5113343;27;20253;-72
2021/07/18 10:20:52;;;;;;;9.52;4.35;;;25.70;99.90;;;;;;5110017;27;20201;-72
2021/07/18 10:23:19;;;;;;;5.57;3.90;;;25.90;99.90;;;;;;5110378;28;20209;-72
2021/07/18 10:25:48;;;;;;;6.60;4.30;;;25.70;99.90;;;;;;5121390;27;20623;-72
2021/07/18 10:28:17;;;;;;;9.00;4.07;;;25.60;99.90;;;;;;5111627;27;20197;-72
2021/07/18 10:30:47;;;;;;;6.55;3.40;;;25.60;99.90;;;;;;5113785;27;20219;-72
2021/07/18 10:33:19;;;;;;;5.18;3.85;;;26.30;99.90;;;;;;5109419;28;20205;-72
2021/07/18 10:35:48;;;;;;;4.45;3.50;;;26.50;99.90;;;;;;5106635;28;20221;-71
2021/07/18 10:38:17;;;;;;;4.35;3.40;;;26.30;99.90;;;;;;5112884;27;20606;-72
2021/07/18 10:40:49;;;;;;;4.88;3.75;;;26.70;99.90;;;;;;5126082;27;20201;-72
2021/07/18 10:43:41;;;;;;;7.10;4.10;;;26.60;99.90;;;;;;5112014;27;20670;-72
2021/07/18 10:46:10;;;;;;;4.75;3.50;;;25.90;99.90;;;;;;5108358;28;20711;-72
2021/07/18 10:48:48;;;;;;;6.40;3.60;;;26.00;99.90;;;;;;5109077;28;20262;-72
2021/07/18 10:51:16;;;;;;;3.38;3.08;;;26.10;99.90;;;;;;5109545;28;20253;-72
2021/07/18 10:53:43;;;;;;;5.05;3.60;;;26.50;99.90;;;;;;5109070;27;20670;-72
2021/07/18 10:56:11;;;;;;;4.13;3.00;;;26.60;99.90;;;;;;5108526;28;20220;-72
2021/07/18 10:59:01;;;;;;;4.03;2.83;;;26.80;99.90;;;;;;5108672;28;20258;-72
2021/07/18 11:01:39;;;;;;;4.40;3.20;;;26.60;99.90;;;;;;5109867;28;20269;-72
2021/07/18 11:04:27;;;;;;;3.97;3.20;;;26.40;99.90;;;;;;5112841;27;20250;-71
2021/07/18 11:07:23;;;;;;;5.68;3.70;;;26.40;99.90;;;;;;5099596;28;20189;-72
2021/07/18 11:09:54;;;;;;;3.95;2.95;;;26.60;99.90;;;;;;5109001;28;20263;-72
2021/07/18 11:12:27;;;;;;;4.45;3.60;;;26.70;99.90;;;;;;5112811;28;20638;-75
2021/07/18 11:15:36;;;;;;;4.13;3.40;;;26.80;99.90;;;;;;5112477;28;20201;-75
2021/07/18 11:18:06;;;;;;;3.38;3.08;;;26.90;99.90;;;;;;5112773;28;20197;-75
2021/07/18 11:20:59;;;;;;;3.25;2.90;;;27.00;99.90;;;;;;5112257;28;20607;-75
2021/07/18 11:23:33;;;;;;;4.13;3.20;;;26.50;99.90;;;;;;5112502;28;20251;-75
2021/07/18 11:26:12;;;;;;;4.07;3.47;;;26.70;99.90;;;;;;5112333;28;20212;-73
2021/07/18 11:29:05;;;;;;;3.10;2.80;;;26.50;99.90;;;;;;5112614;28;20228;-73
2021/07/18 11:31:44;;;;;;;6.47;3.63;;;27.10;99.90;;;;;;5112118;28;20280;-73
2021/07/18 11:34:15;;;;;;;3.58;3.20;;;26.50;99.90;;;;;;5112502;28;20253;-73
2021/07/18 11:37:04;;;;;;;5.30;3.67;;;26.40;99.90;;;;;;5112213;28;20704;-74
2021/07/18 11:39:33;;;;;;;5.07;3.55;;;27.20;99.90;;;;;;5112612;28;20232;-73
2021/07/18 11:42:05;;;;;;;4.22;3.60;;;27.20;99.90;;;;;;5112263;28;20239;-73
2021/07/18 11:44:32;;;;;;;4.13;3.67;;;27.20;99.90;;;;;;5112291;28;20236;-73
2021/07/18 11:47:03;;;;;;;4.72;3.20;;;26.60;99.90;;;;;;5114010;28;20196;-73
2021/07/18 11:49:33;;;;;;;3.80;3.50;;;26.90;99.90;;;;;;5116690;28;20638;-73
2021/07/18 11:52:02;;;;;;;4.63;3.42;;;27.10;99.90;;;;;;5116241;28;20201;-73
2021/07/18 11:54:29;;;;;;;4.70;3.40;;;27.70;99.90;;;;;;5116511;28;20196;-73
2021/07/18 11:56:56;;;;;;;4.38;3.75;;;27.60;99.90;;;;;;5116023;28;20275;-73
2021/07/18 11:59:25;;;;;;;4.47;3.45;;;27.30;99.90;;;;;;5116457;28;20209;-74
2021/07/18 12:01:54;;;;;;;3.40;3.10;;;27.20;99.90;;;;;;5116093;28;20250;-74
2021/07/18 12:04:25;;;;;;;3.65;3.35;;;27.40;99.90;;;;;;5116391;28;20249;-72
2021/07/18 12:06:54;;;;;;;4.20;3.78;;;27.90;99.90;;;;;;5116222;28;20193;-73
2021/07/18 12:09:23;;;;;;;4.05;3.70;;;27.90;99.90;;;;;;5116245;28;20265;-73
2021/07/18 12:11:52;;;;;;;4.38;3.35;;;27.50;99.90;;;;;;5116119;28;20208;-73
2021/07/18 12:14:20;;;;;;;3.72;3.20;;;27.90;99.90;;;;;;5115980;28;20197;-75
2021/07/18 12:16:48;;;;;;;5.63;3.35;;;28.00;99.90;;;;;;5116174;28;20315;-75
2021/07/18 12:19:16;;;;;;;5.15;3.22;;;27.60;99.90;;;;;;5115822;28;20197;-75
2021/07/18 12:21:46;;;;;;;3.53;2.90;;;27.60;99.90;;;;;;5115984;28;20201;-75
2021/07/18 12:24:29;;;;;;;3.85;3.10;;;28.00;99.90;;;;;;5115538;28;20201;-75
2021/07/18 12:27:07;;;;;;;3.92;3.30;;;27.00;99.90;;;;;;5114217;27;20643;-75
2021/07/18 12:29:36;;;;;;;4.35;3.05;;;27.50;99.90;;;;;;5115383;28;20643;-75
2021/07/18 12:32:04;;;;;;;5.45;3.67;;;28.00;99.90;;;;;;5115978;28;20624;-75
2021/07/18 12:34:35;;;;;;;6.43;3.40;;;27.60;99.90;;;;;;5115301;28;20197;-76
2021/07/18 12:37:06;;;;;;;7.38;3.47;;;28.20;99.90;;;;;;5114619;28;20224;-75
2021/07/18 12:39:36;;;;;;;3.17;2.85;;;28.30;99.90;;;;;;5115334;28;20233;-73
2021/07/18 12:42:05;;;;;;;3.30;2.97;;;27.60;99.90;;;;;;5115802;28;20197;-73
2021/07/18 12:44:36;;;;;;;3.83;2.90;;;28.00;99.90;;;;;;5115239;28;20638;-73
2021/07/18 12:47:34;;;;;;;5.10;2.88;;;28.40;99.90;;;;;;5115874;28;20203;-73
2021/07/18 12:50:29;;;;;;;3.50;3.13;;;28.30;99.90;;;;;;5080373;27;20220;-73